This is the latest recevied weather packets stored in our database for station/object 9M4RBN-3. If no packets are shown the sender has not sent any weather packets the latest 10 day(s).
| Time | Temp. | Humidity | Pressure | Rain* | Wind** | Luminosity | Snow |
|---|---|---|---|---|---|---|---|
| 1777476986 | 25° C | 45% | 1016 hPa | - | - | - | - |
| 1777476085 | 25° C | 44% | 1016 hPa | - | - | - | - |
| 1777475185 | 25.56° C | 43% | 1015.9 hPa | - | - | - | - |
| 1777474285 | 25.56° C | 43% | 1015.8 hPa | - | - | - | - |
| 1777473387 | 25.56° C | 43% | 1015.8 hPa | - | - | - | - |
| 1777472487 | 25.56° C | 42% | 1015.6 hPa | - | - | - | - |
| 1777471587 | 26.11° C | 43% | 1015.7 hPa | - | - | - | - |
| 1777470687 | 26.11° C | 43% | 1015.6 hPa | - | - | - | - |
| 1777469787 | 26.11° C | 43% | 1015.4 hPa | - | - | - | - |
| 1777468887 | 26.11° C | 44% | 1015.1 hPa | - | - | - | - |
| 1777468019 | 26.11° C | 46% | 1014.9 hPa | - | - | - | - |
| 1777467987 | 26.11° C | 46% | 1014.9 hPa | - | - | - | - |
| 1777467087 | 26.11° C | 48% | 1014.9 hPa | - | - | - | - |
| 1777466186 | 26.11° C | 51% | 1014.8 hPa | - | - | - | - |
| 1777465286 | 26.67° C | 55% | 1014.5 hPa | - | - | - | - |
| 1777464386 | 26.11° C | 44% | 1014.3 hPa | - | - | - | - |
| 1777463486 | 26.67° C | 40% | 1014.1 hPa | - | - | - | - |
| 1777462586 | 27.22° C | 52% | 1013.9 hPa | - | - | - | - |
| 1777461686 | 27.22° C | 68% | 1013.5 hPa | - | - | - | - |
| 1777460786 | 26.67° C | 58% | 1013.1 hPa | - | - | - | - |
| 1777459886 | 25.56° C | 37% | 1012.9 hPa | - | - | - | - |
| 1777458986 | 26.11° C | 37% | 1012.8 hPa | - | - | - | - |
| 1777458086 | 26.67° C | 43% | 1012.7 hPa | - | - | - | - |
| 1777457186 | 27.22° C | 63% | 1012.6 hPa | - | - | - | - |
| 1777456286 | 26.11° C | 57% | 1012.6 hPa | - | - | - | - |
* Rain since midnight (hover to see other rain measurements)
** Current wind speed in m/s (hover to see current wind gust speed)